• Join FlightAware (Why Join?)
  • Login
  • US Flag 
12:00AM EDT


 

Airport Tracker/Info


-or-


 

Live Flight TrackerFlight Track Log ✈ DAL3678 ✈ 07-Apr-2013 ✈ KATL - KHSV

Flight Track Log - Related Links

Times and Time Zones

All times are in EDT time to prevent confusion due to time zone crossing. See the DAL3678 flight status page for this flight to view local times or setup timezone preferences in your user account.

Time Position Orientation Groundspeed Altitude Reporting Facility
EDT Latitude Longitude Course Direction KTS MPH feet Rate Location/Type
02:43PM 33.6500 -84.3500 270° West 198 228 3,000  Level Atlanta TRACON
02:44PM 33.7000 -84.2833 48° Northeast 275 316 4,600 2,220 Climbing Atlanta TRACON
02:45PM 33.7667 -84.2833 360° North 288 331 7,500 2,160 Climbing Atlanta TRACON
02:47PM 33.8103 -84.4589 287° West 278 320 11,500 1,560 Climbing Atlanta Center
02:48PM 33.8001 -84.4552 270° West  Level FlightAware Approximate
02:48PM 33.8078 -84.5764 269° West 324 373 12,500  Level Atlanta Center
02:49PM 33.8092 -84.7064 271° West 352 405 13,800 720 Climbing Atlanta Center
02:50PM 33.8064 -84.8289 268° West 364 419 14,000 60 Climbing Atlanta Center
02:51PM 33.8014 -84.9489 267° West 369 425 14,000  Level Atlanta Center
02:52PM 33.7878 -85.0711 262° West 369 425 14,000  Level Atlanta Center
02:53PM 33.7700 -85.1908 260° West 369 425 14,000  Level Atlanta Center
02:54PM 33.7836 -85.3083 278° West 369 425 14,000  Level Atlanta Center
02:55PM 33.8031 -85.4289 281° West 364 419 14,000  Level Atlanta Center
02:56PM 33.8247 -85.5467 283° West 364 419 14,000  Level Atlanta Center
02:57PM 33.8422 -85.6544 281° West 369 425 14,000  Level Atlanta Center
02:58PM 33.8781 -85.7703 290° West 369 425 14,000  Level Atlanta Center
02:59PM 33.9142 -85.8761 292° West 355 409 14,000 -60 Level Atlanta Center
03:00PM 33.9900 -85.9606 317° Northwest 350 403 13,900 -60 Descending Atlanta Center
03:01PM 34.0808 -86.0328 327° Northwest 365 420 13,900 -600 Level Atlanta Center
03:04PM 34.3319 -86.2400 326° Northwest 379 436 11,800 -840 Descending Memphis Center
03:05PM 34.4133 -86.3064 326° Northwest 367 422 10,900 -720 Descending Memphis Center
03:06PM 34.4864 -86.3708 324° Northwest 355 409 10,400 -1,080 Descending Memphis Center
03:07PM 34.5528 -86.4233 327° Northwest 314 361 8,800 -1,800 Descending Memphis Center
03:08PM 34.6169 -86.4783 325° Northwest 292 336 6,800 -2,040 Descending Memphis Center
03:09PM 34.6794 -86.5361 323° Northwest 286 329 4,800 -1,620 Descending Memphis Center
03:10PM 34.7250 -86.5947 313° West 267 307 3,600 -1,260 Descending Memphis Center
03:11PM 34.7272 -86.6706 272° West 216 249 2,300 -900 Descending Memphis Center
03:12PM 34.7144 -86.7342 256° West 208 239 1,900 -420 Descending Memphis Center